createdAt,value
2023-03-12T00:00:43.652Z,99968.59
2023-03-12T00:03:12.507Z,99973.84
2023-03-12T00:05:40.173Z,99967.88
2023-03-12T00:08:07.697Z,99972.59
2023-03-12T00:10:35.681Z,99971.53
2023-03-12T00:13:03.400Z,99973.13
2023-03-12T00:15:30.692Z,99973.13
2023-03-12T00:17:57.972Z,99973.00
2023-03-12T00:20:26.748Z,99974.91
2023-03-12T00:22:54.008Z,99982.78
2023-03-12T00:25:21.965Z,99982.06
2023-03-12T00:27:49.301Z,99979.94
2023-03-12T00:30:16.924Z,99980.97
2023-03-12T00:32:44.974Z,99983.75
2023-03-12T00:35:12.277Z,99984.47
2023-03-12T00:37:40.871Z,99990.41
2023-03-12T00:40:10.856Z,99991.28
2023-03-12T00:42:38.164Z,99981.69
2023-03-12T00:45:05.813Z,99986.03
2023-03-12T00:47:33.110Z,99978.78
2023-03-12T00:50:00.381Z,99980.41
2023-03-12T00:52:27.675Z,99977.44
2023-03-12T00:54:58.290Z,99982.72
2023-03-12T00:57:25.686Z,99984.50
2023-03-12T00:59:52.967Z,99980.06
2023-03-12T01:02:20.228Z,99975.88
2023-03-12T01:04:47.508Z,99980.38
2023-03-12T01:07:14.848Z,99981.97
2023-03-12T01:09:42.137Z,99983.63
2023-03-12T01:12:10.846Z,99975.88
2023-03-12T01:14:38.104Z,99975.81
2023-03-12T01:17:05.400Z,99984.53
2023-03-12T01:19:32.664Z,99986.25
2023-03-12T01:22:00.030Z,99977.47
2023-03-12T01:24:27.280Z,99984.94
2023-03-12T01:26:54.788Z,99989.19
2023-03-12T01:29:23.445Z,99992.00
2023-03-12T01:31:52.124Z,99983.97
2023-03-12T01:34:19.618Z,99984.25
2023-03-12T01:36:47.763Z,99989.69
2023-03-12T01:39:15.338Z,99989.59
2023-03-12T01:41:42.583Z,99985.22
2023-03-12T01:44:13.832Z,99988.00
2023-03-12T01:46:43.681Z,99993.19
2023-03-12T01:49:12.516Z,99992.25
2023-03-12T01:51:41.035Z,100000.25
2023-03-12T01:54:11.098Z,99998.59
2023-03-12T01:56:38.700Z,100001.94
2023-03-12T01:59:09.197Z,100005.50
2023-03-12T02:01:36.477Z,100000.25
2023-03-12T02:04:05.330Z,100003.31
2023-03-12T02:06:35.375Z,100001.59
2023-03-12T02:09:03.774Z,99991.81
2023-03-12T02:11:31.099Z,99989.19
2023-03-12T02:13:58.414Z,99993.34
2023-03-12T02:16:25.720Z,99993.63
2023-03-12T02:18:54.327Z,99996.38
2023-03-12T02:21:23.939Z,99993.66
2023-03-12T02:23:55.900Z,99987.53
2023-03-12T02:26:25.406Z,99998.16
2023-03-12T02:28:54.318Z,100000.16
2023-03-12T02:31:23.600Z,100003.59
2023-03-12T02:33:52.758Z,100000.16
2023-03-12T02:36:20.069Z,100000.81
2023-03-12T02:38:48.106Z,100011.50
2023-03-12T02:41:17.575Z,100014.88
2023-03-12T02:43:48.269Z,100016.22
2023-03-12T02:46:16.156Z,100023.06
2023-03-12T02:48:43.470Z,100016.88
2023-03-12T02:51:11.073Z,100016.03
2023-03-12T02:53:38.333Z,100017.72
2023-03-12T02:56:05.988Z,100022.84
2023-03-12T02:58:33.581Z,100015.91
2023-03-12T03:01:02.201Z,100028.91
2023-03-12T03:03:29.522Z,100029.16
2023-03-12T03:05:56.782Z,100027.06
2023-03-12T03:08:24.049Z,100027.06
2023-03-12T03:10:51.733Z,100031.56
2023-03-12T03:13:18.995Z,100027.06
2023-03-12T03:15:46.331Z,100030.84
2023-03-12T03:18:14.979Z,100030.72
2023-03-12T03:20:44.260Z,100033.34
2023-03-12T03:23:11.942Z,100034.94
2023-03-12T03:25:39.221Z,100041.88
2023-03-12T03:28:06.492Z,100033.88
2023-03-12T03:30:33.770Z,100050.78
2023-03-12T03:33:01.041Z,100046.13
2023-03-12T03:35:29.668Z,100049.84
2023-03-12T03:37:56.946Z,100055.31
2023-03-12T03:40:24.194Z,100059.16
2023-03-12T03:42:51.451Z,100057.19
2023-03-12T03:45:19.657Z,100069.47
2023-03-12T03:47:47.079Z,100069.91
2023-03-12T03:50:14.340Z,100061.25
2023-03-12T03:52:42.938Z,100060.25
2023-03-12T03:55:10.745Z,100062.97
2023-03-12T03:57:38.072Z,100060.22
2023-03-12T04:00:09.374Z,100055.88
2023-03-12T04:02:37.011Z,100064.59
2023-03-12T04:05:04.370Z,100070.56
2023-03-12T04:07:31.898Z,100066.09
2023-03-12T04:10:00.599Z,100068.59
2023-03-12T04:12:28.634Z,100068.09
2023-03-12T04:14:56.042Z,100064.81
2023-03-12T04:17:23.640Z,100065.81
2023-03-12T04:19:51.014Z,100073.50
2023-03-12T04:22:18.301Z,100074.66
2023-03-12T04:24:46.335Z,100078.13
2023-03-12T04:27:15.003Z,100084.44
2023-03-12T04:29:42.374Z,100078.72
2023-03-12T04:32:09.683Z,100076.00
2023-03-12T04:34:37.289Z,100073.16
2023-03-12T04:37:04.652Z,100077.66
2023-03-12T04:39:31.924Z,100070.53
2023-03-12T04:41:59.183Z,100075.88
2023-03-12T04:44:27.760Z,100069.03
2023-03-12T04:46:55.061Z,100075.06
2023-03-12T04:49:22.498Z,100081.25
2023-03-12T04:51:49.759Z,100073.16
2023-03-12T04:54:17.073Z,100080.78
2023-03-12T04:56:44.368Z,100087.69
2023-03-12T04:59:11.644Z,100085.91
2023-03-12T05:01:40.241Z,100091.91
2023-03-12T05:04:07.645Z,100089.09
2023-03-12T05:06:35.043Z,100087.06
2023-03-12T05:09:02.629Z,100096.78
2023-03-12T05:11:30.133Z,100096.84
2023-03-12T05:13:57.627Z,100097.22
2023-03-12T05:16:24.944Z,100097.28
2023-03-12T05:18:53.557Z,100098.13
2023-03-12T05:21:21.334Z,100098.47
2023-03-12T05:23:49.281Z,100103.56
2023-03-12T05:26:17.364Z,100093.22
2023-03-12T05:28:45.134Z,100092.41
2023-03-12T05:31:12.932Z,100098.13
2023-03-12T05:33:40.300Z,100094.66
2023-03-12T05:36:09.380Z,100093.06
2023-03-12T05:38:36.703Z,100099.47
2023-03-12T05:41:04.151Z,100100.91
2023-03-12T05:43:31.461Z,100107.88
2023-03-12T05:45:59.961Z,100108.78
2023-03-12T05:48:27.446Z,100104.31
2023-03-12T05:50:54.722Z,100105.38
2023-03-12T05:53:24.905Z,100098.97
2023-03-12T05:55:52.178Z,100108.94
2023-03-12T05:58:19.645Z,100099.22
2023-03-12T06:00:46.922Z,100109.81
2023-03-12T06:03:14.251Z,100099.88
2023-03-12T06:05:41.628Z,100107.75
2023-03-12T06:08:08.891Z,100103.38
2023-03-12T06:10:38.174Z,100110.13
2023-03-12T06:13:05.450Z,100097.13
2023-03-12T06:15:32.826Z,100097.78
2023-03-12T06:18:00.146Z,100095.94
2023-03-12T06:20:27.494Z,100093.22
2023-03-12T06:22:54.739Z,100091.34
2023-03-12T06:25:22.147Z,100096.47
2023-03-12T06:27:50.759Z,100100.75
2023-03-12T06:30:18.251Z,100103.88
2023-03-12T06:32:45.649Z,100099.06
2023-03-12T06:35:13.051Z,100097.03
2023-03-12T06:37:40.304Z,100107.25
2023-03-12T06:40:10.703Z,100102.56
2023-03-12T06:42:38.152Z,100100.16
2023-03-12T06:45:07.601Z,100100.34
2023-03-12T06:47:34.867Z,100100.56
2023-03-12T06:50:02.157Z,100100.50
2023-03-12T06:52:29.728Z,100094.97
2023-03-12T06:54:56.977Z,100103.34
2023-03-12T06:57:24.225Z,100098.63
2023-03-12T06:59:51.575Z,100098.06
2023-03-12T07:02:20.188Z,100098.41
2023-03-12T07:04:47.606Z,100098.97
2023-03-12T07:07:16.932Z,100096.00
2023-03-12T07:09:44.194Z,100096.38
2023-03-12T07:12:11.464Z,100090.69
2023-03-12T07:14:38.705Z,100090.22
2023-03-12T07:17:06.206Z,100092.25
2023-03-12T07:19:34.780Z,100089.94
2023-03-12T07:22:02.278Z,100089.16
2023-03-12T07:24:29.540Z,100085.19
2023-03-12T07:26:56.824Z,100086.59
2023-03-12T07:29:24.087Z,100087.13
2023-03-12T07:31:51.393Z,100098.84
2023-03-12T07:34:18.803Z,100094.56
2023-03-12T07:36:47.549Z,100093.81
2023-03-12T07:39:14.913Z,100095.03
2023-03-12T07:41:42.192Z,100095.78
2023-03-12T07:44:09.627Z,100098.13
2023-03-12T07:46:37.103Z,100097.03
2023-03-12T07:49:04.430Z,100094.84
2023-03-12T07:51:31.733Z,100095.72
2023-03-12T07:54:00.324Z,100098.88
2023-03-12T07:56:27.600Z,100085.19
2023-03-12T07:58:55.475Z,100094.81
2023-03-12T08:01:22.917Z,100098.97
2023-03-12T08:03:50.419Z,100101.63
2023-03-12T08:06:19.860Z,100089.97
2023-03-12T08:08:47.952Z,100100.47
2023-03-12T08:11:16.839Z,100098.84
2023-03-12T08:13:44.415Z,100099.25
2023-03-12T08:16:11.749Z,100103.75
2023-03-12T08:18:39.175Z,100103.34
2023-03-12T08:21:06.716Z,100102.97
2023-03-12T08:23:34.145Z,100098.31
2023-03-12T08:26:01.483Z,100100.25
2023-03-12T08:28:30.814Z,100101.16
2023-03-12T08:30:59.797Z,100095.75
2023-03-12T08:33:27.109Z,100104.13
2023-03-12T08:35:54.558Z,100100.66
2023-03-12T08:38:21.850Z,100111.00
2023-03-12T08:40:55.152Z,100097.94
2023-03-12T08:43:22.445Z,100104.31
2023-03-12T08:45:54.966Z,100098.13
2023-03-12T08:48:22.277Z,100097.63
2023-03-12T08:50:49.626Z,100101.31
2023-03-12T08:53:17.401Z,100097.25
2023-03-12T08:55:45.680Z,100093.50
2023-03-12T08:58:12.957Z,100097.97
2023-03-12T09:00:40.312Z,100090.34
2023-03-12T09:03:12.371Z,100087.78
2023-03-12T09:05:39.684Z,100084.84
2023-03-12T09:08:06.973Z,100084.22
2023-03-12T09:10:34.449Z,100076.22
2023-03-12T09:13:01.745Z,100076.94
2023-03-12T09:15:29.136Z,100074.88
2023-03-12T09:17:56.725Z,100078.16
2023-03-12T09:20:26.732Z,100080.63
2023-03-12T09:22:54.038Z,100086.03
2023-03-12T09:25:23.205Z,100075.00
2023-03-12T09:27:50.529Z,100066.09
2023-03-12T09:30:18.799Z,100061.50
2023-03-12T09:32:46.502Z,100057.63
2023-03-12T09:35:17.937Z,100055.41
2023-03-12T09:37:54.098Z,100049.63
2023-03-12T09:40:23.179Z,100049.81
2023-03-12T09:42:53.147Z,100052.72
2023-03-12T09:45:25.010Z,100046.47
2023-03-12T09:47:53.857Z,100052.25
2023-03-12T09:50:23.657Z,100055.31
2023-03-12T09:52:54.834Z,100045.56
2023-03-12T09:55:24.225Z,100052.53
2023-03-12T09:57:52.724Z,100053.25
2023-03-12T10:00:21.465Z,100040.03
2023-03-12T10:02:54.089Z,100048.34
2023-03-12T10:05:25.266Z,100036.16
2023-03-12T10:07:58.597Z,100028.16
2023-03-12T10:10:30.707Z,100030.81
2023-03-12T10:13:08.311Z,100023.22
2023-03-12T10:15:41.052Z,100024.44
2023-03-12T10:18:13.941Z,100022.81
2023-03-12T10:20:47.924Z,100023.09
2023-03-12T10:23:23.158Z,100015.84
2023-03-12T10:25:54.318Z,100018.78
2023-03-12T10:28:23.484Z,100014.31
2023-03-12T10:30:52.741Z,100014.13
2023-03-12T10:33:22.631Z,100009.91
2023-03-12T10:35:50.937Z,99999.94
2023-03-12T10:38:25.299Z,100001.09
2023-03-12T10:40:52.586Z,99985.72
2023-03-12T10:43:19.851Z,99990.44
2023-03-12T10:45:53.152Z,99998.25
2023-03-12T10:48:21.739Z,99997.69
2023-03-12T10:51:01.110Z,99987.63
2023-03-12T10:53:35.638Z,99981.06
2023-03-12T10:56:05.114Z,99989.59
2023-03-12T10:58:33.733Z,99991.59
2023-03-12T11:01:01.964Z,99976.63
2023-03-12T11:03:30.105Z,99979.88
2023-03-12T11:06:02.675Z,99967.63
2023-03-12T11:08:30.884Z,99973.31
2023-03-12T11:11:00.404Z,99974.13
2023-03-12T11:13:29.094Z,99971.53
2023-03-12T11:15:57.127Z,99975.19
2023-03-12T11:18:26.433Z,99972.72
2023-03-12T11:20:56.339Z,99962.88
2023-03-12T11:23:25.111Z,99951.78
2023-03-12T11:25:56.538Z,99951.88
2023-03-12T11:28:29.001Z,99962.31
2023-03-12T11:30:58.110Z,99955.06
2023-03-12T11:33:25.753Z,99946.75
2023-03-12T11:36:01.962Z,99947.81
2023-03-12T11:38:31.945Z,99938.97
2023-03-12T11:41:06.503Z,99935.47
2023-03-12T11:43:43.874Z,99937.78
2023-03-12T11:46:21.559Z,99927.00
2023-03-12T11:48:55.241Z,99913.03
2023-03-12T11:51:28.527Z,99912.38
2023-03-12T11:54:15.244Z,99904.03
2023-03-12T11:56:45.923Z,99905.38
2023-03-12T11:59:37.197Z,99901.16
2023-03-12T12:02:15.354Z,99903.53
2023-03-12T12:05:06.617Z,99884.94
2023-03-12T12:07:40.276Z,99874.69
2023-03-12T12:10:14.708Z,99860.13
2023-03-12T12:12:52.600Z,99860.56
2023-03-12T12:15:24.798Z,99849.03
2023-03-12T12:17:57.958Z,99846.69
2023-03-12T12:20:29.748Z,99845.59
2023-03-12T12:23:03.065Z,99847.66
2023-03-12T12:25:37.487Z,99846.88
2023-03-12T12:28:18.220Z,99840.78
2023-03-12T12:30:52.820Z,99837.38
2023-03-12T12:33:28.399Z,99842.41
2023-03-12T12:35:56.351Z,99840.69
2023-03-12T12:38:30.210Z,99824.28
2023-03-12T12:41:00.874Z,99809.88
2023-03-12T12:43:29.320Z,99809.22
2023-03-12T12:45:59.163Z,99811.81
2023-03-12T12:48:29.638Z,99817.69
2023-03-12T12:50:59.570Z,99815.13
2023-03-12T12:53:28.985Z,99812.31
2023-03-12T12:56:02.072Z,99816.97
2023-03-12T12:58:37.656Z,99813.41
2023-03-12T13:01:05.158Z,99823.09
2023-03-12T13:03:33.913Z,99813.19
2023-03-12T13:06:02.827Z,99798.53
2023-03-12T13:08:34.672Z,99806.16
2023-03-12T13:11:17.205Z,99801.13
2023-03-12T13:13:49.392Z,99802.19
2023-03-12T13:16:18.105Z,99804.13
2023-03-12T13:18:57.860Z,99811.69
2023-03-12T13:21:29.459Z,99802.38
2023-03-12T13:24:04.002Z,99803.66
2023-03-12T13:26:32.693Z,99799.09
2023-03-12T13:29:13.069Z,99793.53
2023-03-12T13:31:41.507Z,99797.47
2023-03-12T13:34:30.417Z,99797.47
2023-03-12T13:36:59.515Z,99787.44
2023-03-12T13:39:31.905Z,99793.75
2023-03-12T13:42:00.070Z,99790.72
2023-03-12T13:44:33.016Z,99792.53
2023-03-12T13:47:01.132Z,99796.81
2023-03-12T13:49:35.230Z,99791.81
2023-03-12T13:52:09.923Z,99780.06
2023-03-12T13:54:42.535Z,99781.22
2023-03-12T13:57:14.117Z,99790.22
2023-03-12T13:59:45.339Z,99794.28
2023-03-12T14:02:21.565Z,99795.66
2023-03-12T14:04:50.287Z,99796.09
2023-03-12T14:07:29.952Z,99794.78
2023-03-12T14:10:05.371Z,99798.19
2023-03-12T14:12:36.409Z,99792.72
2023-03-12T14:15:16.883Z,99804.22
2023-03-12T14:17:45.302Z,99806.31
2023-03-12T14:20:17.402Z,99797.59
2023-03-12T14:22:46.849Z,99788.75
2023-03-12T14:25:15.797Z,99793.78
2023-03-12T14:27:45.976Z,99786.06
2023-03-12T14:30:17.288Z,99801.56
2023-03-12T14:32:45.205Z,99798.69
2023-03-12T14:35:18.758Z,99791.28
2023-03-12T14:37:50.059Z,99789.91
2023-03-12T14:40:22.959Z,99795.44
2023-03-12T14:42:50.274Z,99783.88
2023-03-12T14:45:18.736Z,99808.78
2023-03-12T14:47:47.110Z,99807.47
2023-03-12T14:50:19.702Z,99799.56
2023-03-12T14:52:47.001Z,99795.97
2023-03-12T14:55:17.939Z,99789.78
2023-03-12T14:57:45.504Z,99785.88
2023-03-12T15:00:24.566Z,99783.00
2023-03-12T15:02:53.560Z,99783.47
2023-03-12T15:05:22.433Z,99776.91
2023-03-12T15:07:51.190Z,99789.47
2023-03-12T15:10:21.108Z,99775.53
2023-03-12T15:12:49.064Z,99778.97
2023-03-12T15:15:26.813Z,99767.25
2023-03-12T15:17:57.539Z,99765.22
2023-03-12T15:20:26.673Z,99761.00
2023-03-12T15:22:54.312Z,99758.47
2023-03-12T15:25:25.526Z,99748.22
2023-03-12T15:28:03.247Z,99752.94
2023-03-12T15:30:30.728Z,99743.56
2023-03-12T15:33:07.886Z,99745.38
2023-03-12T15:35:37.166Z,99731.78
2023-03-12T15:38:04.987Z,99708.81
2023-03-12T15:40:32.429Z,99708.88
2023-03-12T15:43:03.212Z,99698.03
2023-03-12T15:45:36.097Z,99706.22
2023-03-12T15:48:04.930Z,99691.66
2023-03-12T15:50:34.791Z,99688.78
2023-03-12T15:53:05.904Z,99693.59
2023-03-12T15:55:33.455Z,99705.81
2023-03-12T15:58:00.727Z,99685.97
2023-03-12T16:00:29.815Z,99689.47
2023-03-12T16:02:58.261Z,99678.69
2023-03-12T16:05:27.404Z,99672.91
2023-03-12T16:07:54.727Z,99686.13
2023-03-12T16:10:25.514Z,99677.28
2023-03-12T16:12:53.600Z,99682.31
2023-03-12T16:15:23.554Z,99677.69
2023-03-12T16:17:50.836Z,99663.50
2023-03-12T16:20:18.727Z,99668.66
2023-03-12T16:22:46.040Z,99666.75
2023-03-12T16:25:14.050Z,99674.13
2023-03-12T16:27:46.555Z,99662.72
2023-03-12T16:30:16.118Z,99661.31
2023-03-12T16:32:43.460Z,99672.72
2023-03-12T16:35:12.718Z,99664.75
2023-03-12T16:37:39.988Z,99666.34
2023-03-12T16:40:08.032Z,99673.50
2023-03-12T16:42:35.687Z,99681.44
2023-03-12T16:45:04.896Z,99678.53
2023-03-12T16:47:32.555Z,99671.28
2023-03-12T16:50:00.029Z,99666.34
2023-03-12T16:52:27.666Z,99672.59
2023-03-12T16:54:54.945Z,99670.34
2023-03-12T16:57:26.471Z,99671.97
2023-03-12T16:59:54.444Z,99676.44
2023-03-12T17:02:23.156Z,99665.94
2023-03-12T17:04:51.077Z,99659.13
2023-03-12T17:07:18.652Z,99667.88
2023-03-12T17:09:45.924Z,99675.09
2023-03-12T17:12:19.272Z,99674.50
2023-03-12T17:14:46.572Z,99676.09
2023-03-12T17:17:14.131Z,99665.88
2023-03-12T17:19:42.727Z,99663.09
2023-03-12T17:22:10.077Z,99669.44
2023-03-12T17:24:39.177Z,99676.94
2023-03-12T17:27:06.565Z,99685.16
2023-03-12T17:29:33.892Z,99688.00
2023-03-12T17:32:04.199Z,99680.59
2023-03-12T17:34:31.555Z,99682.31
2023-03-12T17:37:04.338Z,99699.63
2023-03-12T17:39:31.837Z,99693.47
2023-03-12T17:41:59.081Z,99696.59
2023-03-12T17:44:29.381Z,99692.13
2023-03-12T17:46:59.659Z,99688.97
2023-03-12T17:49:27.433Z,99684.03
2023-03-12T17:51:54.730Z,99683.09
2023-03-12T17:54:23.370Z,99680.44
2023-03-12T17:56:50.685Z,99687.06
2023-03-12T17:59:18.144Z,99691.94
2023-03-12T18:01:45.568Z,99701.56
2023-03-12T18:04:12.881Z,99702.50
2023-03-12T18:06:40.177Z,99697.94
2023-03-12T18:09:07.595Z,99678.31
2023-03-12T18:11:36.198Z,99680.44
2023-03-12T18:14:03.502Z,99675.84
2023-03-12T18:16:30.901Z,99674.72
2023-03-12T18:18:58.356Z,99677.25
2023-03-12T18:21:25.907Z,99676.41
2023-03-12T18:23:55.780Z,99691.19
2023-03-12T18:26:24.688Z,99683.44
2023-03-12T18:28:53.848Z,99688.56
2023-03-12T18:31:21.133Z,99685.13
2023-03-12T18:33:50.463Z,99694.66
2023-03-12T18:36:17.886Z,99686.94
2023-03-12T18:38:45.457Z,99685.50
2023-03-12T18:41:13.643Z,99693.84
2023-03-12T18:43:41.765Z,99696.44
2023-03-12T18:46:11.324Z,99686.28
2023-03-12T18:48:38.660Z,99682.09
2023-03-12T18:51:06.123Z,99686.34
2023-03-12T18:53:33.927Z,99681.06
2023-03-12T18:56:01.277Z,99676.66
2023-03-12T18:58:29.180Z,99678.28
2023-03-12T19:00:57.975Z,99690.47
2023-03-12T19:03:26.910Z,99692.94
2023-03-12T19:06:01.409Z,99695.28
2023-03-12T19:08:28.767Z,99695.28
2023-03-12T19:10:56.256Z,99692.72
2023-03-12T19:13:23.659Z,99684.84
2023-03-12T19:15:50.942Z,99695.91
2023-03-12T19:18:21.450Z,99711.91
2023-03-12T19:20:50.034Z,99698.81
2023-03-12T19:23:17.363Z,99699.34
2023-03-12T19:25:44.683Z,99698.34
2023-03-12T19:28:11.953Z,99690.44
2023-03-12T19:30:42.456Z,99681.25
2023-03-12T19:33:09.865Z,99682.56
2023-03-12T19:35:38.569Z,99692.13
2023-03-12T19:38:07.230Z,99680.03
2023-03-12T19:40:34.908Z,99685.97
2023-03-12T19:43:05.451Z,99678.63
2023-03-12T19:45:32.737Z,99687.72
2023-03-12T19:48:00.103Z,99688.78
2023-03-12T19:50:27.442Z,99682.50
2023-03-12T19:52:54.763Z,99686.25
2023-03-12T19:55:23.382Z,99679.31
2023-03-12T19:57:50.689Z,99691.50
2023-03-12T20:00:18.443Z,99700.47
2023-03-12T20:02:46.483Z,99698.00
2023-03-12T20:05:14.282Z,99695.88
2023-03-12T20:07:41.587Z,99714.66
2023-03-12T20:10:10.699Z,99710.00
2023-03-12T20:12:39.827Z,99711.78
2023-03-12T20:15:07.708Z,99715.66
2023-03-12T20:17:35.005Z,99713.41
2023-03-12T20:20:02.315Z,99709.34
2023-03-12T20:22:31.001Z,99708.91
2023-03-12T20:24:58.245Z,99710.19
2023-03-12T20:27:26.588Z,99707.22
2023-03-12T20:29:55.231Z,99714.47
2023-03-12T20:32:22.552Z,99719.59
2023-03-12T20:34:49.875Z,99725.16
2023-03-12T20:37:17.958Z,99714.66
2023-03-12T20:39:45.248Z,99707.41
2023-03-12T20:42:12.511Z,99702.88
2023-03-12T20:44:39.859Z,99695.72
2023-03-12T20:47:08.485Z,99688.75
2023-03-12T20:49:36.045Z,99698.16
2023-03-12T20:52:03.522Z,99695.59
2023-03-12T20:54:32.454Z,99693.38
2023-03-12T20:56:59.721Z,99694.00
2023-03-12T20:59:27.013Z,99695.28
2023-03-12T21:01:54.284Z,99689.94
2023-03-12T21:04:22.879Z,99692.59
2023-03-12T21:06:51.616Z,99690.06
2023-03-12T21:09:19.056Z,99698.59
2023-03-12T21:11:46.327Z,99700.41
2023-03-12T21:14:13.637Z,99706.81
2023-03-12T21:16:40.906Z,99707.13
2023-03-12T21:19:08.227Z,99694.59
2023-03-12T21:21:37.900Z,99699.72
2023-03-12T21:24:05.499Z,99710.75
2023-03-12T21:26:32.830Z,99712.25
2023-03-12T21:29:00.127Z,99701.13
2023-03-12T21:31:27.632Z,99692.88
2023-03-12T21:33:55.335Z,99698.31
2023-03-12T21:36:22.669Z,99692.53
2023-03-12T21:38:51.691Z,99691.47
2023-03-12T21:41:19.395Z,99686.03
2023-03-12T21:43:47.055Z,99688.28
2023-03-12T22:00:46.342Z,99663.41
2023-03-12T22:03:13.587Z,99653.66
2023-03-12T22:05:41.171Z,99659.00
2023-03-12T22:08:08.431Z,99660.25
2023-03-12T22:10:35.690Z,99664.13
2023-03-12T22:13:02.931Z,99663.00
2023-03-12T22:15:31.332Z,99661.06
2023-03-12T22:17:59.912Z,99658.97
2023-03-12T22:20:27.158Z,99657.66
2023-03-12T22:22:54.403Z,99645.28
2023-03-12T22:25:21.667Z,99654.47
2023-03-12T22:27:48.937Z,99654.72
2023-03-12T22:30:16.369Z,99649.88
2023-03-12T22:32:43.755Z,99647.44
2023-03-12T22:35:12.365Z,99643.66
2023-03-12T22:37:39.641Z,99641.78
2023-03-12T22:40:08.443Z,99638.66
2023-03-12T22:42:35.747Z,99621.91
2023-03-12T22:45:03.674Z,99627.66
2023-03-12T22:47:31.002Z,99627.47
2023-03-12T22:49:58.418Z,99630.09
2023-03-12T22:52:26.997Z,99632.53
2023-03-12T22:54:54.597Z,99622.06
2023-03-12T22:57:21.826Z,99630.16
2023-03-12T22:59:49.090Z,99629.31
2023-03-12T23:02:16.411Z,99628.56
2023-03-12T23:04:44.366Z,99632.31
2023-03-12T23:07:14.525Z,99627.47
2023-03-12T23:09:43.865Z,99633.28
2023-03-12T23:12:11.151Z,99630.75
2023-03-12T23:14:38.408Z,99626.09
2023-03-12T23:17:06.142Z,99635.25
2023-03-12T23:19:33.528Z,99626.78
2023-03-12T23:22:00.864Z,99624.13
2023-03-12T23:24:30.196Z,99626.34
2023-03-12T23:26:58.784Z,99625.19
2023-03-12T23:29:26.059Z,99620.25
2023-03-12T23:31:53.373Z,99616.09
2023-03-12T23:34:20.698Z,99616.22
2023-03-12T23:36:48.161Z,99620.19
2023-03-12T23:39:15.454Z,99615.38
2023-03-12T23:41:42.709Z,99623.59
2023-03-12T23:44:11.307Z,99608.50
2023-03-12T23:46:38.548Z,99610.97
2023-03-12T23:49:05.808Z,99609.59
2023-03-12T23:51:33.872Z,99612.91
2023-03-12T23:54:01.806Z,99605.97
2023-03-12T23:56:32.892Z,99608.28
2023-03-12T23:59:00.256Z,99603.63
